Time;durP1;ratioP1;P1;durP2;ratioP2;P2;SDS_P1;SDS_P2;PMS_P1;PMS_P2;Temp;Humidity;BMP_temperature;BMP_pressure;BME280_temperature;BME280_humidity;BME280_pressure;Samples;Min_cycle;Max_cycle;Signal;HPM_P1;HPM_P2
2020/12/18 00:01:09;;;;;;;18.93;7.40;;;10.50;78.00;;;;;;5003825;28;20187;-95
2020/12/18 00:03:35;;;;;;;20.75;8.65;;;10.50;77.50;;;;;;5003998;28;20402;-96
2020/12/18 00:06:01;;;;;;;16.20;7.15;;;10.40;77.40;;;;;;5003881;28;20168;-96
2020/12/18 00:08:27;;;;;;;15.70;6.87;;;10.40;77.50;;;;;;5003710;28;20187;-96
2020/12/18 00:10:53;;;;;;;23.90;7.80;;;10.50;77.40;;;;;;5003680;28;20254;-96
2020/12/18 00:13:18;;;;;;;15.90;7.90;;;10.60;77.30;;;;;;5003878;28;20203;-95
2020/12/18 00:15:44;;;;;;;22.67;7.83;;;10.30;77.20;;;;;;4999786;28;20218;-95
2020/12/18 00:18:10;;;;;;;17.80;9.03;;;10.20;77.40;;;;;;4996957;28;20187;-93
2020/12/18 00:20:35;;;;;;;19.37;9.00;;;10.10;77.90;;;;;;4987317;28;20204;-93
2020/12/18 00:23:01;;;;;;;19.57;8.03;;;10.10;78.40;;;;;;4995120;28;20186;-93
2020/12/18 00:25:27;;;;;;;17.30;9.10;;;10.00;78.60;;;;;;4992088;28;20185;-94
2020/12/18 00:27:52;;;;;;;26.87;10.17;;;10.00;78.70;;;;;;4991240;28;20278;-94
2020/12/18 00:30:18;;;;;;;25.87;10.07;;;10.10;78.70;;;;;;4989358;28;20477;-94
2020/12/18 00:32:44;;;;;;;27.40;9.13;;;10.10;78.70;;;;;;4997913;28;20187;-94
2020/12/18 00:35:11;;;;;;;24.00;9.87;;;10.30;78.50;;;;;;4985806;28;20624;-93
2020/12/18 00:37:38;;;;;;;21.42;9.57;;;10.20;78.10;;;;;;4985880;28;20189;-92
2020/12/18 00:40:05;;;;;;;20.92;9.00;;;10.10;78.30;;;;;;4983957;28;20667;-95
2020/12/18 00:42:31;;;;;;;13.65;9.20;;;10.10;79.00;;;;;;4985051;28;20265;-94
2020/12/18 00:44:57;;;;;;;18.63;9.13;;;10.10;78.70;;;;;;4984959;28;20180;-94
2020/12/18 00:47:23;;;;;;;18.17;8.77;;;10.10;78.80;;;;;;4985617;28;20225;-95
2020/12/18 00:49:49;;;;;;;17.38;8.48;;;10.20;78.70;;;;;;4986801;28;20466;-94
2020/12/18 00:52:15;;;;;;;36.27;11.40;;;10.10;78.60;;;;;;4988179;28;20202;-94
2020/12/18 00:54:41;;;;;;;23.77;10.00;;;10.10;79.00;;;;;;4993176;28;20450;-95
2020/12/18 00:57:06;;;;;;;17.67;8.30;;;9.90;79.10;;;;;;4990432;28;20171;-94
2020/12/18 00:59:34;;;;;;;22.07;9.60;;;10.10;79.30;;;;;;4988236;28;20238;-94
2020/12/18 01:02:01;;;;;;;21.23;9.07;;;10.20;78.70;;;;;;4987499;28;20225;-94
2020/12/18 01:04:27;;;;;;;28.13;9.98;;;10.10;78.40;;;;;;4985944;28;20180;-95
2020/12/18 01:06:54;;;;;;;24.27;10.70;;;10.00;78.50;;;;;;4988225;28;20207;-95
2020/12/18 01:09:21;;;;;;;25.42;9.73;;;10.00;78.70;;;;;;4988432;28;20281;-94
2020/12/18 01:11:47;;;;;;;18.30;8.55;;;10.00;78.90;;;;;;4985111;28;20175;-95
2020/12/18 01:14:13;;;;;;;23.07;9.70;;;9.80;79.50;;;;;;4987155;28;20639;-94
2020/12/18 01:16:38;;;;;;;24.00;9.43;;;9.80;79.90;;;;;;4984397;28;20622;-94
2020/12/18 01:19:05;;;;;;;26.97;8.53;;;9.80;80.00;;;;;;4984852;28;20486;-94
2020/12/18 01:21:30;;;;;;;26.40;9.65;;;9.80;80.10;;;;;;4987000;28;20701;-94
2020/12/18 01:23:56;;;;;;;21.40;8.10;;;9.70;80.10;;;;;;4987590;28;20183;-95
2020/12/18 01:26:22;;;;;;;25.33;9.47;;;9.70;80.20;;;;;;4991266;28;20175;-95
2020/12/18 01:28:47;;;;;;;19.60;8.37;;;9.80;80.10;;;;;;4990159;28;20187;-95
2020/12/18 01:31:13;;;;;;;17.53;9.20;;;9.70;80.00;;;;;;4987555;28;20266;-94
2020/12/18 01:33:39;;;;;;;22.93;7.37;;;9.70;80.20;;;;;;4986231;28;20180;-95
2020/12/18 01:36:05;;;;;;;18.80;7.13;;;9.80;80.10;;;;;;4984243;28;20709;-94
2020/12/18 01:38:31;;;;;;;16.55;7.90;;;9.90;79.90;;;;;;4981935;28;20188;-94
2020/12/18 01:40:57;;;;;;;18.92;8.60;;;10.00;79.70;;;;;;4980603;28;20291;-94
2020/12/18 01:43:23;;;;;;;30.37;8.57;;;9.90;79.50;;;;;;4985662;28;20183;-94
2020/12/18 01:45:48;;;;;;;24.10;8.27;;;9.90;79.50;;;;;;4984855;28;20655;-95
2020/12/18 01:48:15;;;;;;;18.97;8.80;;;9.80;79.50;;;;;;4986239;28;20447;-94
2020/12/18 01:50:41;;;;;;;16.38;7.65;;;10.00;79.60;;;;;;4967568;28;20208;-93
2020/12/18 01:53:08;;;;;;;21.42;6.68;;;10.10;79.50;;;;;;4966711;28;20191;-94
2020/12/18 01:55:34;;;;;;;19.25;7.40;;;10.10;79.10;;;;;;4970761;28;20176;-94
2020/12/18 01:58:01;;;;;;;11.45;6.57;;;10.00;79.10;;;;;;4964260;28;20555;-93
2020/12/18 02:00:28;;;;;;;17.77;6.70;;;10.00;79.10;;;;;;4965789;28;20199;-93
2020/12/18 02:02:54;;;;;;;15.10;6.60;;;9.80;79.30;;;;;;4966034;28;20239;-94
2020/12/18 02:05:21;;;;;;;17.55;7.15;;;9.90;79.50;;;;;;4965175;28;20239;-93
2020/12/18 02:08:01;;;;;;;20.17;7.32;;;9.90;80.00;;;;;;4966767;28;20184;-94
2020/12/18 02:10:28;;;;;;;14.02;6.13;;;10.00;79.60;;;;;;4966450;28;20207;-94
2020/12/18 02:12:55;;;;;;;9.75;5.15;;;10.00;79.50;;;;;;4969139;28;20188;-94
2020/12/18 02:15:22;;;;;;;16.20;6.45;;;10.00;79.50;;;;;;4966022;28;20528;-93
2020/12/18 02:17:51;;;;;;;12.20;6.40;;;10.10;79.70;;;;;;4968214;28;20206;-94
2020/12/18 02:20:18;;;;;;;18.40;6.30;;;10.10;79.10;;;;;;4969049;28;20206;-94
2020/12/18 02:22:43;;;;;;;17.15;5.97;;;10.00;79.20;;;;;;4972242;28;20184;-94
2020/12/18 02:25:11;;;;;;;18.17;6.80;;;10.10;79.20;;;;;;4968299;28;20215;-94
2020/12/18 02:27:40;;;;;;;16.90;6.03;;;10.10;79.40;;;;;;4970572;28;20550;-94
2020/12/18 02:30:11;;;;;;;11.40;6.20;;;10.10;79.10;;;;;;4970343;28;20211;-94
2020/12/18 02:32:37;;;;;;;20.05;6.20;;;10.10;79.00;;;;;;4968438;28;20176;-95
2020/12/18 02:35:04;;;;;;;16.08;7.80;;;10.20;78.90;;;;;;4967657;28;20207;-94
2020/12/18 02:37:30;;;;;;;9.85;5.20;;;10.30;78.90;;;;;;4967310;28;20192;-94
2020/12/18 02:40:00;;;;;;;26.23;6.30;;;10.30;78.80;;;;;;4966948;28;20267;-94
2020/12/18 02:42:26;;;;;;;16.90;5.93;;;10.20;78.60;;;;;;4966546;28;20190;-93
2020/12/18 02:44:52;;;;;;;11.53;5.60;;;9.90;79.20;;;;;;4972513;28;20203;-95
2020/12/18 02:47:18;;;;;;;10.20;5.35;;;9.80;79.90;;;;;;4977148;28;20190;-94
2020/12/18 02:49:44;;;;;;;12.87;5.37;;;9.70;80.30;;;;;;4972260;28;20239;-95
2020/12/18 02:52:11;;;;;;;11.05;5.40;;;9.80;80.10;;;;;;4968280;28;20925;-94
2020/12/18 02:54:37;;;;;;;12.35;4.80;;;9.70;80.60;;;;;;4973389;28;20202;-95
2020/12/18 02:57:03;;;;;;;13.10;5.13;;;9.80;80.50;;;;;;4966224;28;20648;-95
2020/12/18 02:59:29;;;;;;;6.80;4.40;;;9.80;80.20;;;;;;4968693;28;20475;-94
2020/12/18 03:01:55;;;;;;;11.47;5.10;;;9.80;80.40;;;;;;4967768;28;20195;-94
2020/12/18 03:04:20;;;;;;;9.93;4.23;;;10.00;80.00;;;;;;4965048;28;20180;-94
2020/12/18 03:06:46;;;;;;;17.73;5.57;;;10.10;79.90;;;;;;4966296;28;20451;-94
2020/12/18 03:09:12;;;;;;;12.30;4.70;;;9.90;79.80;;;;;;4967191;28;20691;-93
2020/12/18 03:11:38;;;;;;;9.20;4.50;;;10.00;79.90;;;;;;4966950;28;20176;-94
2020/12/18 03:14:03;;;;;;;12.67;5.03;;;10.00;79.90;;;;;;4966010;28;20263;-94
2020/12/18 03:16:30;;;;;;;18.80;5.10;;;10.00;79.50;;;;;;4975925;28;20179;-96
2020/12/18 03:18:56;;;;;;;11.23;4.68;;;10.10;79.80;;;;;;4970307;28;20199;-94
2020/12/18 03:21:22;;;;;;;5.72;4.20;;;10.00;79.50;;;;;;4965267;28;20215;-94
2020/12/18 03:23:47;;;;;;;16.93;5.33;;;9.60;80.40;;;;;;4966925;28;20187;-94
2020/12/18 03:26:13;;;;;;;10.07;4.53;;;9.60;81.00;;;;;;4966006;28;20184;-94
2020/12/18 03:28:39;;;;;;;10.50;4.70;;;9.80;81.00;;;;;;4967277;28;20188;-94
2020/12/18 03:31:05;;;;;;;13.03;3.80;;;9.80;80.80;;;;;;4965826;28;20513;-94
2020/12/18 03:33:31;;;;;;;11.18;5.50;;;9.70;80.70;;;;;;4967251;28;20204;-93
2020/12/18 03:35:56;;;;;;;8.83;3.60;;;9.70;81.00;;;;;;4965275;28;20196;-93
2020/12/18 03:38:22;;;;;;;15.63;5.70;;;9.80;81.00;;;;;;4982456;28;20176;-95
2020/12/18 03:40:48;;;;;;;12.33;4.40;;;9.80;80.60;;;;;;4966720;28;20570;-94
2020/12/18 03:43:13;;;;;;;15.97;4.30;;;9.80;80.40;;;;;;4969177;28;20188;-94
2020/12/18 03:45:39;;;;;;;11.40;3.53;;;10.00;80.40;;;;;;4970410;28;20242;-95
2020/12/18 03:48:05;;;;;;;15.80;5.13;;;10.00;79.80;;;;;;4970937;28;20431;-95
2020/12/18 03:50:31;;;;;;;14.87;4.67;;;10.00;79.60;;;;;;4969864;28;20263;-95
2020/12/18 03:52:56;;;;;;;10.53;4.40;;;10.00;79.40;;;;;;4970814;28;20184;-96
2020/12/18 03:55:22;;;;;;;8.90;4.83;;;9.90;78.70;;;;;;4968747;28;20172;-95
2020/12/18 03:57:48;;;;;;;8.63;4.70;;;10.00;78.20;;;;;;4972426;28;20183;-95
2020/12/18 04:00:13;;;;;;;8.93;5.10;;;10.10;77.60;;;;;;4973995;28;20570;-95
2020/12/18 04:02:39;;;;;;;14.80;5.17;;;10.20;77.30;;;;;;4966751;28;20180;-95
2020/12/18 04:05:05;;;;;;;9.90;5.30;;;10.20;76.70;;;;;;4965718;28;20193;-95
2020/12/18 04:07:30;;;;;;;10.97;5.63;;;10.20;76.30;;;;;;4963905;28;20475;-94
2020/12/18 04:09:56;;;;;;;11.47;5.63;;;10.20;76.50;;;;;;4961004;28;20208;-94
2020/12/18 04:12:22;;;;;;;13.03;5.30;;;10.30;76.60;;;;;;4976963;28;20195;-95
2020/12/18 04:14:47;;;;;;;24.93;5.10;;;10.30;76.40;;;;;;4966195;28;20703;-95
2020/12/18 04:17:13;;;;;;;9.47;5.10;;;10.30;76.30;;;;;;4964340;28;20644;-95
2020/12/18 04:19:39;;;;;;;6.80;4.50;;;10.20;75.90;;;;;;4963283;28;20200;-95
2020/12/18 04:22:04;;;;;;;13.47;3.97;;;10.00;75.80;;;;;;4976889;28;20164;-95
2020/12/18 04:24:30;;;;;;;10.33;5.10;;;10.00;76.10;;;;;;4983878;28;20183;-95
2020/12/18 04:26:56;;;;;;;12.93;5.27;;;10.00;76.60;;;;;;4983821;28;20184;-96
2020/12/18 04:29:22;;;;;;;15.00;5.13;;;9.90;76.90;;;;;;4984011;28;20244;-94
2020/12/18 04:31:47;;;;;;;8.00;5.37;;;9.90;77.10;;;;;;4977788;28;20215;-95
2020/12/18 04:34:13;;;;;;;7.53;4.60;;;9.90;77.50;;;;;;4965738;28;20190;-95
2020/12/18 04:36:39;;;;;;;10.20;4.33;;;9.80;77.40;;;;;;4967088;28;20686;-95
2020/12/18 04:39:06;;;;;;;11.85;4.95;;;9.80;77.60;;;;;;4965284;28;20287;-95
2020/12/18 04:41:32;;;;;;;9.32;5.57;;;9.70;77.80;;;;;;4966394;28;20187;-95
2020/12/18 04:43:59;;;;;;;8.75;5.50;;;9.70;77.90;;;;;;4970812;28;20180;-95
2020/12/18 04:46:24;;;;;;;8.75;5.20;;;9.60;77.90;;;;;;4976557;28;20184;-94
2020/12/18 04:48:50;;;;;;;11.50;4.70;;;9.60;78.30;;;;;;4973466;28;20195;-95
2020/12/18 04:51:22;;;;;;;5.97;4.65;;;9.50;78.60;;;;;;4975857;28;20255;-95
2020/12/18 04:53:50;;;;;;;8.23;3.72;;;9.50;79.10;;;;;;4969706;28;20180;-95
2020/12/18 04:56:20;;;;;;;6.97;4.15;;;9.60;79.40;;;;;;4968612;28;20175;-95
2020/12/18 04:58:55;;;;;;;12.65;4.57;;;9.50;79.70;;;;;;4975940;28;20176;-96
2020/12/18 05:01:25;;;;;;;6.40;3.80;;;9.60;79.80;;;;;;4968505;28;20280;-95
2020/12/18 05:03:51;;;;;;;11.25;4.50;;;9.70;80.10;;;;;;4965303;28;20214;-95
2020/12/18 05:06:17;;;;;;;12.20;4.65;;;9.90;80.00;;;;;;4980072;28;20196;-96
2020/12/18 05:08:44;;;;;;;9.35;5.00;;;9.80;79.80;;;;;;4982175;28;20200;-95
2020/12/18 05:11:27;;;;;;;12.55;5.05;;;9.70;80.10;;;;;;4978779;28;20218;-94
2020/12/18 05:13:55;;;;;;;13.40;5.95;;;9.80;80.40;;;;;;4980967;28;20215;-94
2020/12/18 05:16:21;;;;;;;15.23;6.15;;;9.70;81.00;;;;;;4963708;28;20550;-94
2020/12/18 05:18:48;;;;;;;9.15;5.63;;;9.80;81.10;;;;;;4965512;28;20545;-94
2020/12/18 05:21:14;;;;;;;13.68;6.47;;;9.80;81.30;;;;;;4963248;28;20267;-95
2020/12/18 05:23:42;;;;;;;11.02;6.97;;;9.80;81.00;;;;;;4963085;28;20180;-95
2020/12/18 05:26:12;;;;;;;15.23;6.80;;;9.90;81.40;;;;;;4965128;28;20176;-95
2020/12/18 05:28:39;;;;;;;27.42;6.55;;;10.00;80.80;;;;;;4968268;28;20187;-95
2020/12/18 05:31:12;;;;;;;14.57;6.40;;;10.10;80.70;;;;;;4971001;28;20203;-95
2020/12/18 05:33:38;;;;;;;15.20;8.48;;;10.10;80.60;;;;;;4970588;28;20184;-94
2020/12/18 05:36:04;;;;;;;14.15;8.25;;;9.80;81.00;;;;;;4966283;28;20196;-94
2020/12/18 05:38:30;;;;;;;13.10;7.67;;;9.90;81.70;;;;;;4961138;28;20191;-95
2020/12/18 05:41:00;;;;;;;20.13;7.40;;;10.00;81.60;;;;;;4961656;28;20450;-95
2020/12/18 05:43:40;;;;;;;15.27;8.40;;;10.00;81.40;;;;;;4960493;28;20586;-94
2020/12/18 05:46:25;;;;;;;19.25;8.60;;;9.90;81.70;;;;;;4960349;28;20179;-94
2020/12/18 05:49:08;;;;;;;15.10;7.88;;;9.80;81.90;;;;;;4960811;28;20171;-94
2020/12/18 05:51:39;;;;;;;12.60;7.25;;;10.10;81.90;;;;;;4960059;28;20204;-94
2020/12/18 05:54:09;;;;;;;20.20;8.18;;;10.20;81.20;;;;;;4959967;28;20254;-95
2020/12/18 05:56:35;;;;;;;12.50;8.15;;;10.20;80.70;;;;;;4966772;28;20176;-95
2020/12/18 05:59:09;;;;;;;15.00;9.43;;;10.20;81.20;;;;;;4967984;28;20196;-96
2020/12/18 06:02:02;;;;;;;18.13;7.80;;;10.40;80.80;;;;;;4979481;28;20183;-92
2020/12/18 06:04:32;;;;;;;16.33;8.77;;;10.40;80.40;;;;;;4967416;28;20283;-95
2020/12/18 06:06:58;;;;;;;14.27;8.52;;;10.50;81.00;;;;;;4970433;28;20264;-95
2020/12/18 06:09:28;;;;;;;12.40;7.90;;;10.50;80.00;;;;;;4969348;28;20204;-95
2020/12/18 06:11:54;;;;;;;12.80;7.38;;;10.50;79.60;;;;;;4970154;28;20533;-95
2020/12/18 06:14:20;;;;;;;14.48;7.75;;;10.60;79.90;;;;;;4969475;28;20187;-95
2020/12/18 06:16:49;;;;;;;13.40;7.93;;;10.60;79.50;;;;;;4969841;28;20182;-95
2020/12/18 06:19:16;;;;;;;12.23;6.57;;;10.80;79.30;;;;;;4966778;28;20227;-95
2020/12/18 06:21:58;;;;;;;11.48;7.90;;;11.00;78.90;;;;;;4966427;28;20636;-95
2020/12/18 06:24:24;;;;;;;12.63;6.63;;;11.00;78.40;;;;;;4965436;28;20180;-95
2020/12/18 06:27:00;;;;;;;10.50;8.38;;;11.10;78.40;;;;;;4964619;28;20180;-94
2020/12/18 06:29:26;;;;;;;15.55;7.53;;;11.00;78.30;;;;;;4965483;28;20207;-94
2020/12/18 06:31:53;;;;;;;24.52;7.85;;;10.90;78.30;;;;;;4964142;28;20176;-95
2020/12/18 06:34:23;;;;;;;9.85;6.78;;;10.70;78.30;;;;;;4964493;28;20187;-94
2020/12/18 06:36:50;;;;;;;9.80;6.60;;;10.80;78.40;;;;;;4963792;28;20656;-94
2020/12/18 06:39:42;;;;;;;11.38;6.60;;;10.80;78.00;;;;;;4965296;28;20204;-95
2020/12/18 06:42:13;;;;;;;7.57;6.88;;;11.00;77.70;;;;;;4961897;28;20187;-94
2020/12/18 06:45:04;;;;;;;10.77;7.20;;;11.00;77.00;;;;;;4963453;28;20176;-94
2020/12/18 06:47:31;;;;;;;6.63;5.70;;;10.80;76.70;;;;;;4963019;28;20675;-94
2020/12/18 06:49:57;;;;;;;13.65;5.93;;;11.20;76.70;;;;;;4961650;28;20230;-93
2020/12/18 06:52:47;;;;;;;12.33;6.40;;;11.30;76.50;;;;;;4962206;28;20172;-93
2020/12/18 06:55:25;;;;;;;14.18;8.20;;;11.40;75.90;;;;;;4966095;28;20175;-95
2020/12/18 06:58:05;;;;;;;19.73;7.97;;;11.20;75.20;;;;;;4973091;28;20183;-94
2020/12/18 07:00:41;;;;;;;15.95;6.85;;;11.10;75.90;;;;;;4962571;28;20220;-95
2020/12/18 07:03:07;;;;;;;11.05;6.93;;;11.00;75.80;;;;;;4962413;28;20171;-94
2020/12/18 07:05:43;;;;;;;11.43;6.27;;;11.20;76.40;;;;;;4962236;28;20205;-94
2020/12/18 07:08:11;;;;;;;9.63;6.10;;;11.20;75.80;;;;;;4963168;28;20461;-94
2020/12/18 07:10:40;;;;;;;7.20;6.45;;;11.20;76.10;;;;;;4966298;28;20208;-93
2020/12/18 07:13:07;;;;;;;12.45;6.55;;;11.10;76.40;;;;;;4977268;28;20180;-93
2020/12/18 07:15:46;;;;;;;17.23;6.13;;;11.40;76.70;;;;;;4984860;28;20164;-93
2020/12/18 07:18:23;;;;;;;10.15;5.40;;;11.30;75.90;;;;;;4983421;28;20184;-94
2020/12/18 07:20:54;;;;;;;11.10;6.40;;;11.10;76.70;;;;;;4982729;28;20200;-92
2020/12/18 07:23:45;;;;;;;14.38;7.00;;;11.30;76.60;;;;;;4982974;28;20248;-96
2020/12/18 07:26:13;;;;;;;12.23;6.32;;;11.50;76.50;;;;;;4975099;28;20172;-91
2020/12/18 07:28:49;;;;;;;11.15;6.43;;;11.50;76.40;;;;;;4980502;28;20182;-93
2020/12/18 07:31:20;;;;;;;9.18;5.68;;;11.60;75.90;;;;;;4983804;28;20215;-93
2020/12/18 07:33:52;;;;;;;13.65;6.57;;;11.60;75.70;;;;;;4978350;28;20176;-95
2020/12/18 07:36:18;;;;;;;10.27;6.57;;;11.70;75.60;;;;;;4970187;28;20191;-95
2020/12/18 07:38:44;;;;;;;12.10;6.80;;;11.60;75.60;;;;;;4984134;28;20175;-94
2020/12/18 07:41:14;;;;;;;10.17;6.57;;;11.70;75.90;;;;;;4997262;28;20194;-94
2020/12/18 07:43:45;;;;;;;11.80;6.78;;;11.40;75.60;;;;;;4996813;28;20468;-96
2020/12/18 07:46:14;;;;;;;9.88;6.30;;;11.50;76.10;;;;;;4984527;28;20187;-94
2020/12/18 07:48:41;;;;;;;14.68;7.32;;;11.40;76.10;;;;;;4976345;28;20191;-96
2020/12/18 07:51:18;;;;;;;11.77;8.05;;;11.50;76.10;;;;;;4977412;28;20196;-96
2020/12/18 07:53:55;;;;;;;11.40;7.32;;;11.70;75.60;;;;;;4995963;28;20223;-95
2020/12/18 07:56:22;;;;;;;15.82;7.60;;;11.80;75.50;;;;;;4975308;28;20196;-94
2020/12/18 07:58:51;;;;;;;11.57;7.85;;;11.70;75.20;;;;;;4972475;28;20179;-94
2020/12/18 08:01:23;;;;;;;11.95;8.02;;;11.70;75.10;;;;;;4974911;28;20196;-95
2020/12/18 08:03:50;;;;;;;14.80;8.70;;;11.50;75.50;;;;;;4968971;28;20243;-94
2020/12/18 08:06:30;;;;;;;9.70;6.97;;;11.00;76.40;;;;;;4968193;28;20203;-95
2020/12/18 08:09:01;;;;;;;15.15;6.80;;;11.20;76.70;;;;;;4972146;28;20191;-95
2020/12/18 08:11:32;;;;;;;13.77;6.28;;;11.40;76.50;;;;;;4971412;28;20218;-95
2020/12/18 08:14:00;;;;;;;12.63;6.32;;;11.10;76.40;;;;;;4975803;28;20175;-94
2020/12/18 08:16:29;;;;;;;9.82;7.18;;;11.20;77.00;;;;;;4992407;28;20172;-95
2020/12/18 08:19:16;;;;;;;11.82;5.38;;;11.20;77.10;;;;;;4972522;28;20202;-95
2020/12/18 08:21:46;;;;;;;7.88;5.45;;;11.40;76.80;;;;;;4977103;28;20211;-94
2020/12/18 08:24:39;;;;;;;9.38;6.13;;;11.40;76.30;;;;;;4976931;28;20642;-94
2020/12/18 08:27:11;;;;;;;10.68;5.80;;;11.40;76.00;;;;;;4977053;28;20184;-95
2020/12/18 08:29:39;;;;;;;8.57;5.95;;;11.20;76.60;;;;;;4978025;28;20235;-95
2020/12/18 08:32:07;;;;;;;13.50;5.70;;;11.20;76.80;;;;;;4979131;28;20184;-95
2020/12/18 08:34:35;;;;;;;10.88;6.63;;;11.10;76.90;;;;;;4979373;28;20179;-95
2020/12/18 08:37:04;;;;;;;10.38;4.55;;;11.20;77.10;;;;;;4978868;28;20191;-95
2020/12/18 08:39:31;;;;;;;7.57;5.18;;;11.50;76.60;;;;;;4977147;28;20690;-94
2020/12/18 08:41:57;;;;;;;12.98;4.60;;;11.60;76.30;;;;;;4975099;28;20234;-94
2020/12/18 08:44:27;;;;;;;11.23;5.40;;;11.50;76.10;;;;;;4977528;28;20191;-94
2020/12/18 08:46:53;;;;;;;7.90;5.60;;;11.70;75.60;;;;;;4975616;28;20176;-94
2020/12/18 08:49:22;;;;;;;8.57;4.65;;;11.90;75.40;;;;;;4980211;28;20219;-95
2020/12/18 08:51:51;;;;;;;11.88;6.38;;;12.00;75.10;;;;;;4979095;28;20179;-94
2020/12/18 08:54:38;;;;;;;9.48;4.60;;;11.90;74.50;;;;;;4980337;28;20176;-95
2020/12/18 08:57:13;;;;;;;9.55;4.90;;;11.70;74.80;;;;;;4961998;28;20188;-95
2020/12/18 08:59:40;;;;;;;8.77;4.93;;;11.90;75.00;;;;;;4978802;28;20226;-95
2020/12/18 09:02:16;;;;;;;9.40;4.95;;;12.00;74.70;;;;;;4977856;28;20280;-95
2020/12/18 09:04:44;;;;;;;9.75;5.88;;;11.90;75.10;;;;;;4976557;28;20207;-94
2020/12/18 09:07:10;;;;;;;12.20;5.28;;;11.70;75.20;;;;;;4977143;28;20191;-94
2020/12/18 09:09:36;;;;;;;9.47;5.20;;;11.50;75.70;;;;;;4978762;28;20239;-94
2020/12/18 09:12:17;;;;;;;11.90;5.00;;;11.60;75.70;;;;;;4969967;28;20435;-94
2020/12/18 09:14:49;;;;;;;5.28;4.03;;;11.50;76.30;;;;;;4991658;28;20427;-94
2020/12/18 09:17:21;;;;;;;19.27;4.45;;;11.80;77.90;;;;;;4977355;28;20176;-94
2020/12/18 09:19:49;;;;;;;11.63;5.18;;;12.00;80.00;;;;;;4974799;28;20207;-94
2020/12/18 09:22:28;;;;;;;7.13;4.07;;;12.40;80.50;;;;;;4973678;28;20184;-94
2020/12/18 09:25:06;;;;;;;11.45;5.18;;;12.50;78.10;;;;;;4973091;28;20172;-93
2020/12/18 09:27:31;;;;;;;11.63;4.47;;;12.80;75.50;;;;;;4975027;28;20183;-93
2020/12/18 09:29:58;;;;;;;13.23;5.80;;;12.80;75.60;;;;;;4964117;28;20226;-92
2020/12/18 09:32:24;;;;;;;11.02;4.80;;;12.70;73.70;;;;;;4962789;28;20179;-93
2020/12/18 09:34:50;;;;;;;7.70;4.07;;;12.50;73.50;;;;;;4961542;28;20284;-92
2020/12/18 09:37:17;;;;;;;15.63;5.57;;;12.60;75.40;;;;;;4959532;28;20180;-92
2020/12/18 09:39:43;;;;;;;6.22;4.97;;;12.70;73.70;;;;;;4959339;28;20218;-93
2020/12/18 09:42:09;;;;;;;9.07;3.73;;;12.80;73.00;;;;;;4960186;28;20184;-92
2020/12/18 09:44:34;;;;;;;7.90;4.60;;;12.90;74.70;;;;;;4975022;28;20187;-92
2020/12/18 09:47:00;;;;;;;7.60;3.73;;;13.00;73.80;;;;;;4959051;28;20597;-92
2020/12/18 09:49:26;;;;;;;11.97;4.07;;;13.10;73.60;;;;;;4958471;28;20206;-92
2020/12/18 09:51:51;;;;;;;8.20;4.40;;;13.10;72.00;;;;;;4975539;28;20179;-92
2020/12/18 09:54:17;;;;;;;7.20;3.50;;;13.20;73.30;;;;;;4958716;28;20179;-93
2020/12/18 09:56:43;;;;;;;9.50;3.23;;;13.20;71.80;;;;;;4960254;28;20175;-93
2020/12/18 09:59:08;;;;;;;12.23;4.20;;;13.10;71.10;;;;;;4973552;28;20659;-91
2020/12/18 10:01:34;;;;;;;9.10;3.93;;;13.20;72.40;;;;;;4973546;28;20426;-92
2020/12/18 10:04:00;;;;;;;6.20;3.20;;;13.10;71.90;;;;;;4983960;28;20179;-91
2020/12/18 10:06:27;;;;;;;5.80;2.87;;;13.10;72.00;;;;;;4984642;28;20163;-93
2020/12/18 10:08:53;;;;;;;7.60;2.90;;;13.00;73.40;;;;;;4983943;28;20179;-91
2020/12/18 10:11:19;;;;;;;8.45;3.33;;;13.10;70.40;;;;;;4983474;28;20207;-91
2020/12/18 10:13:45;;;;;;;6.87;3.90;;;13.20;69.70;;;;;;4983396;28;20246;-91
2020/12/18 10:16:10;;;;;;;9.20;4.00;;;13.20;69.10;;;;;;5001517;28;20784;-91
2020/12/18 10:18:36;;;;;;;8.97;3.47;;;13.10;69.20;;;;;;4986935;28;20429;-92
2020/12/18 10:21:03;;;;;;;7.30;3.05;;;13.00;68.90;;;;;;4986110;28;20183;-92
2020/12/18 10:23:29;;;;;;;11.48;2.92;;;13.30;69.30;;;;;;4985146;28;20183;-91
2020/12/18 10:25:57;;;;;;;8.40;2.67;;;13.30;69.00;;;;;;4984704;28;20671;-92
2020/12/18 10:28:25;;;;;;;7.80;4.75;;;13.40;68.80;;;;;;4986117;28;20201;-91
2020/12/18 10:30:51;;;;;;;12.00;3.05;;;12.90;68.80;;;;;;4984710;28;20238;-91
2020/12/18 10:33:16;;;;;;;3.00;2.33;;;12.90;69.00;;;;;;4985149;28;20183;-91
2020/12/18 10:35:42;;;;;;;18.73;3.60;;;12.80;68.80;;;;;;4985960;28;20946;-91
2020/12/18 10:38:08;;;;;;;6.60;2.40;;;12.90;69.10;;;;;;4984066;28;20182;-91
2020/12/18 10:40:34;;;;;;;6.17;3.00;;;12.80;68.70;;;;;;4996489;28;20226;-91
2020/12/18 10:43:00;;;;;;;6.97;2.37;;;12.90;69.50;;;;;;4986070;28;20175;-91
2020/12/18 10:45:25;;;;;;;3.75;2.17;;;13.00;68.90;;;;;;4978777;28;20430;-91
2020/12/18 10:47:51;;;;;;;16.97;3.93;;;13.20;68.60;;;;;;4963354;28;20180;-92
2020/12/18 10:50:17;;;;;;;4.63;2.33;;;13.00;68.20;;;;;;4965732;28;20527;-91
2020/12/18 10:52:42;;;;;;;8.80;2.93;;;12.80;68.00;;;;;;4963393;28;20172;-92
2020/12/18 10:55:08;;;;;;;15.30;2.77;;;13.00;67.90;;;;;;4963198;28;20180;-91
2020/12/18 10:57:34;;;;;;;6.23;2.87;;;13.20;67.80;;;;;;4963703;28;20176;-91
2020/12/18 11:00:00;;;;;;;7.10;2.90;;;13.00;67.50;;;;;;4962747;28;20550;-90
2020/12/18 11:02:25;;;;;;;5.50;3.10;;;13.30;67.60;;;;;;4956949;28;20180;-92
2020/12/18 11:04:51;;;;;;;6.23;2.97;;;13.00;68.10;;;;;;4965660;28;20435;-92
2020/12/18 11:07:17;;;;;;;3.90;2.73;;;12.90;67.40;;;;;;4966604;28;20192;-93
2020/12/18 11:09:43;;;;;;;8.00;2.73;;;12.70;68.00;;;;;;4970192;28;20208;-93
2020/12/18 11:12:09;;;;;;;4.75;2.95;;;12.90;68.50;;;;;;4971398;28;20416;-93
2020/12/18 11:14:34;;;;;;;8.67;2.43;;;12.70;68.40;;;;;;4997204;28;20203;-91
2020/12/18 11:17:00;;;;;;;9.40;4.83;;;12.70;68.40;;;;;;4998122;28;20176;-91
2020/12/18 11:19:26;;;;;;;5.17;2.33;;;12.80;68.60;;;;;;4996991;28;20200;-91
2020/12/18 11:21:52;;;;;;;7.40;2.60;;;12.80;68.50;;;;;;4995971;28;20422;-91
2020/12/18 11:24:18;;;;;;;8.90;2.60;;;12.90;68.40;;;;;;4983209;28;20524;-92
2020/12/18 11:26:50;;;;;;;8.80;2.40;;;12.80;68.30;;;;;;4982584;28;20419;-91
2020/12/18 11:29:15;;;;;;;5.78;2.55;;;12.90;68.10;;;;;;4963441;28;20446;-91
2020/12/18 11:31:41;;;;;;;6.97;3.03;;;13.30;67.90;;;;;;4980476;28;20306;-91
2020/12/18 11:34:07;;;;;;;5.70;2.10;;;13.40;67.10;;;;;;4981565;28;20219;-91
2020/12/18 11:36:34;;;;;;;2.30;2.10;;;13.30;67.10;;;;;;5005619;28;20187;-91
2020/12/18 11:39:01;;;;;;;2.63;1.70;;;13.20;67.00;;;;;;4993804;28;20230;-92
2020/12/18 11:41:27;;;;;;;3.33;2.00;;;13.20;66.90;;;;;;4969319;28;20188;-92
2020/12/18 11:43:53;;;;;;;3.17;1.60;;;13.50;67.00;;;;;;4962433;28;20191;-92
2020/12/18 11:46:19;;;;;;;4.57;3.10;;;13.30;66.80;;;;;;4962951;28;20782;-91
2020/12/18 11:48:45;;;;;;;4.40;2.27;;;13.60;66.20;;;;;;4962899;28;20223;-91
2020/12/18 11:51:10;;;;;;;4.20;1.60;;;13.80;65.80;;;;;;4961528;28;20482;-92
2020/12/18 11:53:36;;;;;;;1.87;1.67;;;13.70;65.80;;;;;;4962704;28;20794;-93
2020/12/18 11:56:03;;;;;;;10.70;1.93;;;13.80;66.50;;;;;;4963831;28;20188;-92
2020/12/18 11:58:29;;;;;;;1.58;1.48;;;13.80;65.60;;;;;;4962218;28;20423;-92
2020/12/18 12:00:56;;;;;;;4.70;1.40;;;13.70;65.60;;;;;;4964620;28;20227;-92
2020/12/18 12:03:23;;;;;;;2.85;1.67;;;13.50;65.80;;;;;;4964532;28;20498;-92
2020/12/18 12:05:48;;;;;;;8.65;1.90;;;13.60;66.00;;;;;;4967322;28;20255;-91
2020/12/18 12:08:14;;;;;;;7.20;2.23;;;13.50;66.30;;;;;;4966432;28;20222;-91
2020/12/18 12:10:40;;;;;;;2.80;1.83;;;13.40;66.10;;;;;;4980915;28;20223;-92
2020/12/18 12:19:18;;;;;;;5.32;2.22;;;13.40;65.90;;;;;;5351604;23;20610;-94
2020/12/18 12:22:24;;;;;;;4.50;1.77;;;13.30;66.00;;;;;;4996286;28;20203;-94
2020/12/18 12:28:36;;;;;;;1.77;1.55;;;13.40;65.30;;;;;;4941109;29;20182;-96
2020/12/18 12:31:47;;;;;;;3.33;1.60;;;13.60;65.60;;;;;;4956153;28;20247;-95
2020/12/18 12:34:28;;;;;;;4.78;1.80;;;13.90;65.20;;;;;;4965705;28;20221;-95
2020/12/18 12:36:59;;;;;;;5.57;1.77;;;13.80;64.40;;;;;;4978866;28;20192;-94
2020/12/18 12:39:26;;;;;;;1.38;1.27;;;13.80;64.60;;;;;;4963356;28;20199;-93
2020/12/18 12:41:52;;;;;;;5.10;1.98;;;13.90;65.00;;;;;;4963316;28;20317;-94
2020/12/18 12:44:18;;;;;;;7.47;1.77;;;13.70;64.70;;;;;;4958528;29;20587;-94
2020/12/18 12:46:44;;;;;;;5.88;1.73;;;13.80;64.80;;;;;;4960618;29;20424;-94
2020/12/18 12:49:10;;;;;;;3.47;1.40;;;14.00;65.10;;;;;;4956908;29;20228;-94
2020/12/18 12:51:37;;;;;;;4.43;1.30;;;13.70;64.50;;;;;;4960788;29;20436;-94
2020/12/18 12:54:03;;;;;;;2.05;1.42;;;13.40;64.40;;;;;;4962751;28;20164;-95
2020/12/18 12:56:29;;;;;;;10.50;1.42;;;13.50;64.80;;;;;;4993784;28;20223;-94
2020/12/18 12:58:55;;;;;;;2.47;1.67;;;13.50;64.20;;;;;;5001084;28;20195;-95